Archival Weather

Sharurah

Sharurah, Saudi Arabia (OESH)

Report from: Thursday, December 7, 2023 1:00 AM +03
Current time: Thursday, February 22, 2024 4:29 PM +03

Current weather – Weather history – Daily summaries
Weather forecast

Temperature19.0°C (66.2°F)
Dew point7.0°C (44.6°F)
Winds 5 kts (2.6 m/s, 5.8 mph) East-Northeast (70°)
Clouds Sky clear
Altimeter30.09 in.Hg (1019 mB)
Relative humidity46 %
Density altitude421 ft. (128 m)
Remarks Ceiling and visibility OK
No significant changes expected in the next two hours
Flight conditions Visual Meteorological Conditions
Raw dataOESH 062200Z 07005KT CAVOK 19/07 Q1019 NOSIG
An error has occurred. This application may no longer respond until reloaded. Reload 🗙